RYR75MA LIEE-LPPR
Flight info
| Callsign | RYR75MA |
|---|---|
| Flight time | 2h 22m |
| Altitude | 18000 |
| Route | KOVAS M732 GINOX/N0440F380 DCT KIFMI DCT ELVOP DCT MUREN/N0438F370 M601 BCN N725 DGO N976 ZMR L155 ADORO DCT INKIT |
| Aircraft | B738/M-SDE2E3FGHIRWXY/LB1 |
Departure
| Time | 2026-05-06 18:17 |
|---|---|
| Airport | Cagliari Elmas Airport (LIEE) |
Arrival
| Time | 2026-05-06 20:39 |
|---|---|
| Airport | Francisco de Sá Carneiro Airport (LPPR) |
| Time | Latitude | Longitude | Altitude | Speed | Heading |
|---|---|---|---|---|---|
| 2026-05-06 17:43 | 39.25403 | 9.05914 | 14 ft | 0 kts | 142° |
| 2026-05-06 18:07 | 39.25404 | 9.05914 | 14 ft | 1 kts | 142° |
| 2026-05-06 18:07 | 39.25423 | 9.05895 | 14 ft | 4 kts | 142° |
| 2026-05-06 18:08 | 39.25439 | 9.05878 | 15 ft | 4 kts | 152° |
| 2026-05-06 18:08 | 39.25455 | 9.05876 | 14 ft | 3 kts | 231° |
| 2026-05-06 18:08 | 39.25468 | 9.05898 | 14 ft | 1 kts | 232° |
| 2026-05-06 18:11 | 39.25464 | 9.05891 | 16 ft | 3 kts | 232° |
| 2026-05-06 18:11 | 39.25443 | 9.05857 | 15 ft | 7 kts | 231° |
| 2026-05-06 18:11 | 39.25407 | 9.05798 | 15 ft | 9 kts | 231° |
| 2026-05-06 18:11 | 39.25369 | 9.05736 | 15 ft | 9 kts | 232° |
| 2026-05-06 18:12 | 39.25324 | 9.05695 | 14 ft | 8 kts | 173° |
| 2026-05-06 18:12 | 39.25276 | 9.05738 | 16 ft | 9 kts | 139° |
| 2026-05-06 18:12 | 39.25225 | 9.05797 | 14 ft | 10 kts | 139° |
| 2026-05-06 18:12 | 39.25171 | 9.05847 | 15 ft | 10 kts | 176° |
| 2026-05-06 18:13 | 39.25126 | 9.05786 | 16 ft | 10 kts | 223° |
| 2026-05-06 18:13 | 39.25067 | 9.05796 | 14 ft | 9 kts | 144° |
| 2026-05-06 18:13 | 39.25016 | 9.05854 | 16 ft | 11 kts | 138° |
| 2026-05-06 18:13 | 39.24945 | 9.05936 | 14 ft | 17 kts | 138° |
| 2026-05-06 18:14 | 39.24847 | 9.06050 | 14 ft | 22 kts | 138° |
| 2026-05-06 18:14 | 39.24744 | 9.06168 | 14 ft | 21 kts | 138° |
| 2026-05-06 18:14 | 39.24639 | 9.06291 | 14 ft | 21 kts | 138° |
| 2026-05-06 18:14 | 39.24536 | 9.06411 | 15 ft | 20 kts | 138° |
| 2026-05-06 18:15 | 39.24442 | 9.06520 | 14 ft | 15 kts | 138° |
| 2026-05-06 18:15 | 39.24391 | 9.06574 | 16 ft | 9 kts | 154° |
| 2026-05-06 18:15 | 39.24333 | 9.06562 | 16 ft | 8 kts | 198° |
| 2026-05-06 18:15 | 39.24280 | 9.06539 | 16 ft | 8 kts | 198° |
| 2026-05-06 18:16 | 39.24242 | 9.06495 | 17 ft | 8 kts | 265° |
| 2026-05-06 18:16 | 39.24284 | 9.06429 | 15 ft | 15 kts | 317° |
| 2026-05-06 18:16 | 39.24470 | 9.06213 | 13 ft | 71 kts | 318° |
| 2026-05-06 18:16 | 39.24855 | 9.05767 | 16 ft | 120 kts | 318° |
| 2026-05-06 18:17 | 39.25405 | 9.05139 | 16 ft | 160 kts | 318° |
| 2026-05-06 18:17 | 39.26257 | 9.04173 | 477 ft | 167 kts | 316° |
| 2026-05-06 18:17 | 39.27136 | 9.03228 | 1268 ft | 167 kts | 329° |
| 2026-05-06 18:17 | 39.28374 | 9.02933 | 1412 ft | 201 kts | 11° |
| 2026-05-06 18:18 | 39.29796 | 9.03234 | 1884 ft | 213 kts | 7° |
| 2026-05-06 18:18 | 39.31304 | 9.03428 | 2326 ft | 222 kts | 6° |
| 2026-05-06 18:18 | 39.32887 | 9.03597 | 2879 ft | 231 kts | 5° |
| 2026-05-06 18:18 | 39.34537 | 9.03747 | 3288 ft | 251 kts | 4° |
| 2026-05-06 18:19 | 39.36361 | 9.03895 | 3621 ft | 270 kts | 4° |
| 2026-05-06 18:19 | 39.38247 | 9.04057 | 4392 ft | 272 kts | 4° |
| 2026-05-06 18:19 | 39.40146 | 9.04214 | 5156 ft | 275 kts | 4° |
| 2026-05-06 18:19 | 39.42055 | 9.04370 | 5941 ft | 276 kts | 4° |
| 2026-05-06 18:20 | 39.43972 | 9.04521 | 6781 ft | 275 kts | 4° |
| 2026-05-06 18:20 | 39.45887 | 9.04671 | 7568 ft | 277 kts | 3° |
| 2026-05-06 18:20 | 39.47820 | 9.04885 | 8320 ft | 281 kts | 5° |
| 2026-05-06 18:20 | 39.49774 | 9.05141 | 9109 ft | 284 kts | 5° |
| 2026-05-06 18:21 | 39.51749 | 9.05403 | 9912 ft | 287 kts | 4° |
| 2026-05-06 18:21 | 39.53768 | 9.05669 | 10415 ft | 300 kts | 4° |
| 2026-05-06 18:21 | 39.55931 | 9.05949 | 10573 ft | 324 kts | 4° |
| 2026-05-06 18:21 | 39.58243 | 9.06245 | 10931 ft | 340 kts | 4° |
| 2026-05-06 18:22 | 39.60624 | 9.06550 | 11530 ft | 347 kts | 4° |
| 2026-05-06 18:22 | 39.63043 | 9.06822 | 12239 ft | 351 kts | 359° |
| 2026-05-06 18:22 | 39.65459 | 9.06365 | 12978 ft | 353 kts | 342° |
| 2026-05-06 18:22 | 39.67754 | 9.05346 | 13714 ft | 356 kts | 335° |
| 2026-05-06 18:23 | 39.69950 | 9.03803 | 14330 ft | 361 kts | 323° |
| 2026-05-06 18:23 | 39.71975 | 9.01870 | 15038 ft | 363 kts | 320° |
| 2026-05-06 18:23 | 39.73986 | 8.99864 | 15746 ft | 367 kts | 320° |
| 2026-05-06 18:23 | 39.76026 | 8.97851 | 16480 ft | 369 kts | 320° |
| 2026-05-06 18:24 | 39.78093 | 8.95836 | 17167 ft | 373 kts | 320° |
| 2026-05-06 18:24 | 39.80186 | 8.93813 | 17820 ft | 378 kts | 320° |
| 2026-05-06 18:24 | 39.82341 | 8.91828 | 18459 ft | 382 kts | 322° |
| 2026-05-06 18:24 | 39.84557 | 8.89909 | 19066 ft | 384 kts | 323° |
| 2026-05-06 18:25 | 39.86805 | 8.87997 | 19719 ft | 386 kts | 323° |
| 2026-05-06 18:25 | 39.89052 | 8.86075 | 20384 ft | 387 kts | 322° |
| 2026-05-06 18:25 | 39.91302 | 8.84138 | 21018 ft | 389 kts | 322° |
| 2026-05-06 18:25 | 39.93562 | 8.82174 | 21554 ft | 394 kts | 321° |
| 2026-05-06 18:26 | 39.95845 | 8.80181 | 22066 ft | 397 kts | 321° |
| 2026-05-06 18:26 | 39.98156 | 8.78163 | 22650 ft | 400 kts | 321° |
| 2026-05-06 18:26 | 40.00466 | 8.76144 | 23280 ft | 400 kts | 321° |
| 2026-05-06 18:26 | 40.02781 | 8.74120 | 23830 ft | 402 kts | 320° |
| 2026-05-06 18:27 | 40.05114 | 8.72078 | 24277 ft | 406 kts | 320° |
| 2026-05-06 18:27 | 40.07477 | 8.70007 | 24685 ft | 411 kts | 320° |
| 2026-05-06 18:27 | 40.09861 | 8.67915 | 25094 ft | 415 kts | 320° |
| 2026-05-06 18:27 | 40.12269 | 8.65802 | 25561 ft | 418 kts | 320° |
| 2026-05-06 18:28 | 40.14658 | 8.63705 | 26024 ft | 420 kts | 320° |
| 2026-05-06 18:28 | 40.17124 | 8.61539 | 26454 ft | 424 kts | 320° |
| 2026-05-06 18:28 | 40.19546 | 8.59408 | 26838 ft | 427 kts | 320° |
| 2026-05-06 18:28 | 40.22027 | 8.57224 | 27255 ft | 430 kts | 320° |
| 2026-05-06 18:29 | 40.24518 | 8.55031 | 27677 ft | 433 kts | 320° |
| 2026-05-06 18:29 | 40.27024 | 8.52821 | 28085 ft | 436 kts | 320° |
| 2026-05-06 18:29 | 40.29544 | 8.50595 | 28476 ft | 438 kts | 320° |
| 2026-05-06 18:29 | 40.32083 | 8.48351 | 28861 ft | 441 kts | 320° |
| 2026-05-06 18:30 | 40.34637 | 8.46091 | 29236 ft | 444 kts | 320° |
| 2026-05-06 18:30 | 40.37203 | 8.43818 | 29609 ft | 447 kts | 320° |
| 2026-05-06 18:30 | 40.39793 | 8.41525 | 29950 ft | 450 kts | 320° |
| 2026-05-06 18:30 | 40.42389 | 8.39223 | 30277 ft | 452 kts | 320° |
| 2026-05-06 18:31 | 40.44996 | 8.36910 | 30665 ft | 452 kts | 320° |
| 2026-05-06 18:31 | 40.47593 | 8.34605 | 31160 ft | 448 kts | 320° |
| 2026-05-06 18:31 | 40.50159 | 8.32324 | 31709 ft | 445 kts | 320° |
| 2026-05-06 18:31 | 40.52710 | 8.30054 | 32206 ft | 442 kts | 319° |
| 2026-05-06 18:32 | 40.55256 | 8.27783 | 32612 ft | 441 kts | 319° |
| 2026-05-06 18:32 | 40.57794 | 8.25517 | 33004 ft | 441 kts | 319° |
| 2026-05-06 18:32 | 40.60328 | 8.23255 | 33436 ft | 439 kts | 319° |
| 2026-05-06 18:32 | 40.62849 | 8.21003 | 33902 ft | 437 kts | 319° |
| 2026-05-06 18:33 | 40.65364 | 8.18754 | 34237 ft | 437 kts | 319° |
| 2026-05-06 18:33 | 40.67881 | 8.16500 | 34538 ft | 437 kts | 319° |
| 2026-05-06 18:33 | 40.70393 | 8.14248 | 34857 ft | 437 kts | 319° |
| 2026-05-06 18:33 | 40.72908 | 8.11992 | 35163 ft | 436 kts | 319° |
| 2026-05-06 18:34 | 40.75410 | 8.09746 | 35464 ft | 435 kts | 319° |
| 2026-05-06 18:34 | 40.77912 | 8.07497 | 35757 ft | 435 kts | 319° |
| 2026-05-06 18:34 | 40.80413 | 8.05248 | 36049 ft | 435 kts | 319° |
| 2026-05-06 18:34 | 40.82893 | 8.02987 | 36344 ft | 432 kts | 315° |
| 2026-05-06 18:35 | 40.84901 | 8.00220 | 36548 ft | 417 kts | 297° |
| 2026-05-06 18:35 | 40.86196 | 7.96861 | 36870 ft | 406 kts | 284° |
| 2026-05-06 18:35 | 40.86813 | 7.93275 | 37126 ft | 398 kts | 272° |
| 2026-05-06 18:35 | 40.87090 | 7.89637 | 37383 ft | 397 kts | 271° |
| 2026-05-06 18:36 | 40.87316 | 7.85999 | 37603 ft | 398 kts | 271° |
| 2026-05-06 18:36 | 40.87529 | 7.82363 | 37841 ft | 398 kts | 270° |
| 2026-05-06 18:36 | 40.87746 | 7.78710 | 37959 ft | 400 kts | 271° |
| 2026-05-06 18:36 | 40.87972 | 7.75034 | 37968 ft | 402 kts | 271° |
| 2026-05-06 18:37 | 40.88367 | 7.68910 | 37955 ft | 401 kts | 271° |
| 2026-05-06 18:37 | 40.88931 | 7.60418 | 37960 ft | 395 kts | 271° |
| 2026-05-06 18:38 | 40.89409 | 7.53190 | 37970 ft | 394 kts | 271° |
| 2026-05-06 18:38 | 40.89882 | 7.45981 | 37963 ft | 393 kts | 271° |
| 2026-05-06 18:39 | 40.90349 | 7.38782 | 37963 ft | 393 kts | 271° |
| 2026-05-06 18:40 | 40.91040 | 7.27993 | 37963 ft | 393 kts | 271° |
| 2026-05-06 18:40 | 40.91497 | 7.20793 | 37967 ft | 394 kts | 271° |
| 2026-05-06 18:41 | 40.91945 | 7.13621 | 37969 ft | 394 kts | 271° |
| 2026-05-06 18:41 | 40.92395 | 7.06391 | 37969 ft | 395 kts | 271° |
| 2026-05-06 18:42 | 40.92840 | 6.99152 | 37966 ft | 395 kts | 271° |
| 2026-05-06 18:42 | 40.93282 | 6.91889 | 37968 ft | 396 kts | 271° |
| 2026-05-06 18:43 | 40.93720 | 6.84618 | 37968 ft | 397 kts | 271° |
| 2026-05-06 18:43 | 40.94081 | 6.78562 | 37970 ft | 398 kts | 270° |
| 2026-05-06 18:44 | 40.94513 | 6.71257 | 37963 ft | 398 kts | 270° |
| 2026-05-06 18:44 | 40.94940 | 6.63960 | 37968 ft | 398 kts | 270° |
| 2026-05-06 18:45 | 40.95360 | 6.56676 | 37967 ft | 397 kts | 270° |
| 2026-05-06 18:45 | 40.95777 | 6.49392 | 37965 ft | 397 kts | 270° |
| 2026-05-06 18:46 | 40.96187 | 6.42124 | 37974 ft | 396 kts | 270° |
| 2026-05-06 18:46 | 40.96592 | 6.34860 | 37963 ft | 395 kts | 270° |
| 2026-05-06 18:47 | 40.96990 | 6.27661 | 37964 ft | 394 kts | 270° |
| 2026-05-06 18:47 | 40.97385 | 6.20429 | 37964 ft | 394 kts | 270° |
| 2026-05-06 18:48 | 40.97774 | 6.13214 | 37972 ft | 393 kts | 270° |
| 2026-05-06 18:48 | 40.98160 | 6.06014 | 37985 ft | 392 kts | 270° |
| 2026-05-06 18:49 | 40.98540 | 5.98774 | 37968 ft | 392 kts | 270° |
| 2026-05-06 18:49 | 40.98911 | 5.91635 | 37968 ft | 391 kts | 270° |
| 2026-05-06 18:50 | 40.99280 | 5.84463 | 37968 ft | 391 kts | 270° |
| 2026-05-06 18:50 | 40.99644 | 5.77286 | 37967 ft | 391 kts | 270° |
| 2026-05-06 18:51 | 41.00006 | 5.70111 | 37991 ft | 391 kts | 270° |
| 2026-05-06 18:51 | 41.00362 | 5.62911 | 37974 ft | 392 kts | 270° |
| 2026-05-06 18:52 | 41.00714 | 5.55718 | 37968 ft | 392 kts | 270° |
| 2026-05-06 18:52 | 41.01062 | 5.48517 | 37971 ft | 392 kts | 270° |
| 2026-05-06 18:53 | 41.01407 | 5.41302 | 37971 ft | 393 kts | 270° |
| 2026-05-06 18:53 | 41.01764 | 5.34088 | 37969 ft | 393 kts | 270° |
| 2026-05-06 18:54 | 41.02146 | 5.26868 | 37974 ft | 393 kts | 270° |
| 2026-05-06 18:54 | 41.02522 | 5.19690 | 37968 ft | 393 kts | 270° |
| 2026-05-06 18:55 | 41.02891 | 5.12469 | 37969 ft | 393 kts | 270° |
| 2026-05-06 18:55 | 41.03257 | 5.05250 | 37973 ft | 393 kts | 270° |
| 2026-05-06 18:56 | 41.03618 | 4.98019 | 37973 ft | 393 kts | 270° |
| 2026-05-06 18:56 | 41.03973 | 4.90793 | 37979 ft | 393 kts | 270° |
| 2026-05-06 18:57 | 41.04327 | 4.83558 | 37967 ft | 394 kts | 270° |
| 2026-05-06 18:57 | 41.04703 | 4.76319 | 37967 ft | 395 kts | 272° |
| 2026-05-06 18:58 | 41.05469 | 4.69098 | 37971 ft | 396 kts | 274° |
| 2026-05-06 18:58 | 41.06268 | 4.61877 | 37964 ft | 396 kts | 274° |
| 2026-05-06 18:59 | 41.07053 | 4.54660 | 37977 ft | 396 kts | 274° |
| 2026-05-06 18:59 | 41.07829 | 4.47439 | 37963 ft | 396 kts | 274° |
| 2026-05-06 19:00 | 41.08597 | 4.40262 | 37964 ft | 396 kts | 274° |
| 2026-05-06 19:00 | 41.09369 | 4.33000 | 37972 ft | 395 kts | 274° |
| 2026-05-06 19:01 | 41.10126 | 4.25830 | 37965 ft | 395 kts | 274° |
| 2026-05-06 19:01 | 41.10884 | 4.18621 | 37986 ft | 395 kts | 274° |
| 2026-05-06 19:02 | 41.11637 | 4.11405 | 37968 ft | 395 kts | 274° |
| 2026-05-06 19:02 | 41.12386 | 4.04188 | 37965 ft | 395 kts | 274° |
| 2026-05-06 19:03 | 41.13130 | 3.96971 | 37966 ft | 395 kts | 274° |
| 2026-05-06 19:03 | 41.13870 | 3.89754 | 37967 ft | 395 kts | 274° |
| 2026-05-06 19:04 | 41.14606 | 3.82529 | 37966 ft | 395 kts | 274° |
| 2026-05-06 19:04 | 41.15338 | 3.75298 | 37971 ft | 396 kts | 274° |
| 2026-05-06 19:05 | 41.16067 | 3.68044 | 38011 ft | 399 kts | 274° |
| 2026-05-06 19:05 | 41.16434 | 3.64383 | 38148 ft | 401 kts | 274° |
| 2026-05-06 19:05 | 41.16800 | 3.60709 | 38389 ft | 401 kts | 274° |
| 2026-05-06 19:05 | 41.17164 | 3.57046 | 38615 ft | 401 kts | 274° |
| 2026-05-06 19:06 | 41.17532 | 3.53363 | 38764 ft | 402 kts | 274° |
| 2026-05-06 19:06 | 41.17899 | 3.49680 | 38917 ft | 402 kts | 274° |
| 2026-05-06 19:06 | 41.18263 | 3.45992 | 38949 ft | 405 kts | 274° |
| 2026-05-06 19:07 | 41.18989 | 3.38572 | 38960 ft | 404 kts | 274° |
| 2026-05-06 19:07 | 41.19700 | 3.31209 | 38958 ft | 400 kts | 274° |
| 2026-05-06 19:08 | 41.20402 | 3.23931 | 38953 ft | 398 kts | 274° |
| 2026-05-06 19:08 | 41.21099 | 3.16650 | 38958 ft | 397 kts | 274° |
| 2026-05-06 19:09 | 41.21788 | 3.09392 | 38961 ft | 396 kts | 274° |
| 2026-05-06 19:09 | 41.22475 | 3.02129 | 38961 ft | 396 kts | 274° |
| 2026-05-06 19:10 | 41.23158 | 2.94853 | 38959 ft | 398 kts | 274° |
| 2026-05-06 19:10 | 41.23838 | 2.87539 | 38959 ft | 400 kts | 274° |
| 2026-05-06 19:11 | 41.24521 | 2.80177 | 38960 ft | 402 kts | 274° |
| 2026-05-06 19:11 | 41.25203 | 2.72770 | 38961 ft | 405 kts | 274° |
| 2026-05-06 19:12 | 41.25882 | 2.65333 | 38972 ft | 406 kts | 274° |
| 2026-05-06 19:12 | 41.26559 | 2.57866 | 38956 ft | 407 kts | 274° |
| 2026-05-06 19:13 | 41.27228 | 2.50433 | 38955 ft | 407 kts | 274° |
| 2026-05-06 19:13 | 41.27896 | 2.42959 | 38956 ft | 406 kts | 274° |
| 2026-05-06 19:14 | 41.28556 | 2.35512 | 38966 ft | 405 kts | 274° |
| 2026-05-06 19:14 | 41.29211 | 2.28079 | 38975 ft | 404 kts | 274° |
| 2026-05-06 19:15 | 41.29859 | 2.20657 | 38962 ft | 403 kts | 274° |
| 2026-05-06 19:15 | 41.30500 | 2.13273 | 38967 ft | 402 kts | 274° |
| 2026-05-06 19:16 | 41.31858 | 2.06037 | 38974 ft | 405 kts | 285° |
| 2026-05-06 19:16 | 41.33713 | 1.98955 | 38985 ft | 406 kts | 285° |
| 2026-05-06 19:17 | 41.35540 | 1.91849 | 38974 ft | 406 kts | 285° |
| 2026-05-06 19:17 | 41.37351 | 1.84720 | 38958 ft | 406 kts | 285° |
| 2026-05-06 19:18 | 41.39155 | 1.77582 | 38952 ft | 408 kts | 285° |
| 2026-05-06 19:18 | 41.40965 | 1.70405 | 38959 ft | 409 kts | 285° |
| 2026-05-06 19:19 | 41.42727 | 1.63254 | 38960 ft | 409 kts | 284° |
| 2026-05-06 19:19 | 41.44415 | 1.56010 | 38946 ft | 410 kts | 283° |
| 2026-05-06 19:20 | 41.46102 | 1.48735 | 38950 ft | 411 kts | 284° |
| 2026-05-06 19:20 | 41.47799 | 1.41447 | 38954 ft | 412 kts | 284° |
| 2026-05-06 19:21 | 41.49500 | 1.34123 | 38946 ft | 413 kts | 284° |
| 2026-05-06 19:21 | 41.51200 | 1.26791 | 38943 ft | 414 kts | 284° |
| 2026-05-06 19:22 | 41.52896 | 1.19455 | 38937 ft | 414 kts | 283° |
| 2026-05-06 19:22 | 41.54577 | 1.12163 | 38945 ft | 414 kts | 284° |
| 2026-05-06 19:23 | 41.56468 | 1.04835 | 38944 ft | 415 kts | 287° |
| 2026-05-06 19:23 | 41.58422 | 0.97579 | 38935 ft | 415 kts | 286° |
| 2026-05-06 19:24 | 41.60334 | 0.90357 | 38928 ft | 415 kts | 286° |
| 2026-05-06 19:24 | 41.62234 | 0.83097 | 38929 ft | 414 kts | 286° |
| 2026-05-06 19:25 | 41.64123 | 0.75841 | 38933 ft | 413 kts | 286° |
| 2026-05-06 19:25 | 41.66006 | 0.68598 | 38937 ft | 412 kts | 286° |
| 2026-05-06 19:26 | 41.67798 | 0.61334 | 38937 ft | 411 kts | 284° |
| 2026-05-06 19:26 | 41.69520 | 0.54057 | 38939 ft | 410 kts | 284° |
| 2026-05-06 19:27 | 41.71248 | 0.46786 | 38939 ft | 410 kts | 284° |
| 2026-05-06 19:27 | 41.72980 | 0.39508 | 38939 ft | 410 kts | 284° |
| 2026-05-06 19:28 | 41.74709 | 0.32233 | 38942 ft | 410 kts | 284° |
| 2026-05-06 19:28 | 41.76421 | 0.24997 | 38929 ft | 410 kts | 284° |
| 2026-05-06 19:29 | 41.78142 | 0.17705 | 38943 ft | 410 kts | 284° |
| 2026-05-06 19:29 | 41.79858 | 0.10403 | 38933 ft | 411 kts | 284° |
| 2026-05-06 19:30 | 41.81571 | 0.03085 | 38928 ft | 412 kts | 284° |
| 2026-05-06 19:30 | 41.83281 | -0.04246 | 38933 ft | 412 kts | 284° |
| 2026-05-06 19:31 | 41.84989 | -0.11590 | 38938 ft | 413 kts | 284° |
| 2026-05-06 19:31 | 41.87547 | -0.22634 | 38934 ft | 414 kts | 284° |
| 2026-05-06 19:32 | 41.89251 | -0.30020 | 38936 ft | 414 kts | 284° |
| 2026-05-06 19:32 | 41.90663 | -0.36158 | 38936 ft | 414 kts | 284° |
| 2026-05-06 19:33 | 41.92361 | -0.43553 | 38936 ft | 415 kts | 284° |
| 2026-05-06 19:33 | 41.94060 | -0.50958 | 38936 ft | 415 kts | 284° |
| 2026-05-06 19:34 | 41.95749 | -0.58358 | 38934 ft | 414 kts | 284° |
| 2026-05-06 19:34 | 41.97433 | -0.65760 | 38938 ft | 414 kts | 284° |
| 2026-05-06 19:35 | 41.99112 | -0.73162 | 38953 ft | 414 kts | 284° |
| 2026-05-06 19:35 | 42.00789 | -0.80575 | 38943 ft | 414 kts | 284° |
| 2026-05-06 19:36 | 42.02456 | -0.87981 | 38960 ft | 414 kts | 284° |
| 2026-05-06 19:36 | 42.04113 | -0.95389 | 38959 ft | 414 kts | 284° |
| 2026-05-06 19:37 | 42.05767 | -1.02812 | 38963 ft | 414 kts | 284° |
| 2026-05-06 19:37 | 42.07416 | -1.10229 | 38961 ft | 414 kts | 284° |
| 2026-05-06 19:38 | 42.09062 | -1.17658 | 38967 ft | 414 kts | 284° |
| 2026-05-06 19:38 | 42.10696 | -1.25054 | 38989 ft | 414 kts | 284° |
| 2026-05-06 19:39 | 42.12336 | -1.32491 | 38976 ft | 415 kts | 284° |
| 2026-05-06 19:39 | 42.13973 | -1.39946 | 38980 ft | 415 kts | 284° |
| 2026-05-06 19:40 | 42.15605 | -1.47400 | 38996 ft | 415 kts | 284° |
| 2026-05-06 19:40 | 42.17234 | -1.54870 | 38985 ft | 415 kts | 284° |
| 2026-05-06 19:41 | 42.18863 | -1.62356 | 39007 ft | 416 kts | 284° |
| 2026-05-06 19:41 | 42.20487 | -1.69860 | 39000 ft | 417 kts | 284° |
| 2026-05-06 19:42 | 42.22112 | -1.77389 | 38994 ft | 418 kts | 284° |
| 2026-05-06 19:42 | 42.23723 | -1.84879 | 38999 ft | 419 kts | 284° |
| 2026-05-06 19:43 | 42.25341 | -1.92427 | 39005 ft | 419 kts | 284° |
| 2026-05-06 19:43 | 42.26959 | -1.99999 | 39003 ft | 419 kts | 284° |
| 2026-05-06 19:44 | 42.28569 | -2.07570 | 39001 ft | 420 kts | 284° |
| 2026-05-06 19:44 | 42.30177 | -2.15158 | 39000 ft | 420 kts | 284° |
| 2026-05-06 19:45 | 42.31780 | -2.22751 | 39001 ft | 420 kts | 283° |
| 2026-05-06 19:45 | 42.33379 | -2.30351 | 38996 ft | 420 kts | 283° |
| 2026-05-06 19:46 | 42.34970 | -2.37939 | 38998 ft | 420 kts | 283° |
| 2026-05-06 19:46 | 42.36554 | -2.45531 | 39001 ft | 419 kts | 283° |
| 2026-05-06 19:47 | 42.38133 | -2.53116 | 39010 ft | 419 kts | 283° |
| 2026-05-06 19:47 | 42.39697 | -2.60662 | 39010 ft | 420 kts | 283° |
| 2026-05-06 19:48 | 42.41270 | -2.68278 | 39022 ft | 420 kts | 283° |
| 2026-05-06 19:48 | 42.42841 | -2.75908 | 39019 ft | 421 kts | 283° |
| 2026-05-06 19:49 | 42.44357 | -2.83573 | 39026 ft | 421 kts | 277° |
| 2026-05-06 19:49 | 42.44506 | -2.87505 | 39034 ft | 418 kts | 264° |
| 2026-05-06 19:49 | 42.44068 | -2.91388 | 39027 ft | 417 kts | 255° |
| 2026-05-06 19:50 | 42.41850 | -2.98630 | 39024 ft | 418 kts | 245° |
| 2026-05-06 19:50 | 42.39360 | -3.05737 | 39018 ft | 418 kts | 245° |
| 2026-05-06 19:51 | 42.36884 | -3.12874 | 39018 ft | 419 kts | 245° |
| 2026-05-06 19:51 | 42.34424 | -3.20027 | 39011 ft | 420 kts | 245° |
| 2026-05-06 19:52 | 42.31964 | -3.27194 | 39002 ft | 420 kts | 245° |
| 2026-05-06 19:52 | 42.29505 | -3.34341 | 39001 ft | 420 kts | 245° |
| 2026-05-06 19:53 | 42.27040 | -3.41484 | 38997 ft | 419 kts | 245° |
| 2026-05-06 19:53 | 42.24572 | -3.48614 | 38996 ft | 419 kts | 245° |
| 2026-05-06 19:54 | 42.22107 | -3.55729 | 38993 ft | 419 kts | 245° |
| 2026-05-06 19:54 | 42.19636 | -3.62844 | 38989 ft | 418 kts | 245° |
| 2026-05-06 19:55 | 42.17165 | -3.69932 | 38978 ft | 418 kts | 245° |
| 2026-05-06 19:55 | 42.14708 | -3.76963 | 38979 ft | 417 kts | 245° |
| 2026-05-06 19:56 | 42.12233 | -3.84028 | 38970 ft | 416 kts | 245° |
| 2026-05-06 19:56 | 42.09762 | -3.91064 | 38966 ft | 416 kts | 245° |
| 2026-05-06 19:57 | 42.07288 | -3.98095 | 38967 ft | 415 kts | 245° |
| 2026-05-06 19:57 | 42.04815 | -4.05123 | 38967 ft | 415 kts | 246° |
| 2026-05-06 19:58 | 42.02872 | -4.12425 | 38968 ft | 415 kts | 252° |
| 2026-05-06 19:58 | 42.01145 | -4.19834 | 38966 ft | 415 kts | 252° |
| 2026-05-06 19:59 | 41.99399 | -4.27219 | 38962 ft | 415 kts | 252° |
| 2026-05-06 19:59 | 41.97614 | -4.34602 | 38966 ft | 415 kts | 251° |
| 2026-05-06 20:00 | 41.95808 | -4.41975 | 38968 ft | 415 kts | 251° |
| 2026-05-06 20:00 | 41.93997 | -4.49339 | 38962 ft | 415 kts | 251° |
| 2026-05-06 20:01 | 41.92179 | -4.56712 | 38955 ft | 415 kts | 251° |
| 2026-05-06 20:01 | 41.90369 | -4.64027 | 38955 ft | 415 kts | 251° |
| 2026-05-06 20:02 | 41.88546 | -4.71371 | 38941 ft | 415 kts | 251° |
| 2026-05-06 20:02 | 41.86717 | -4.78720 | 38945 ft | 415 kts | 251° |
| 2026-05-06 20:03 | 41.84886 | -4.86057 | 38944 ft | 415 kts | 251° |
| 2026-05-06 20:03 | 41.83047 | -4.93396 | 38941 ft | 415 kts | 251° |
| 2026-05-06 20:04 | 41.81196 | -5.00752 | 38941 ft | 415 kts | 251° |
| 2026-05-06 20:04 | 41.79348 | -5.08082 | 38943 ft | 415 kts | 251° |
| 2026-05-06 20:05 | 41.77495 | -5.15413 | 38945 ft | 415 kts | 251° |
| 2026-05-06 20:05 | 41.75637 | -5.22737 | 38942 ft | 415 kts | 251° |
| 2026-05-06 20:06 | 41.73774 | -5.30057 | 38942 ft | 415 kts | 251° |
| 2026-05-06 20:06 | 41.71908 | -5.37371 | 38933 ft | 415 kts | 251° |
| 2026-05-06 20:07 | 41.70034 | -5.44688 | 38936 ft | 416 kts | 251° |
| 2026-05-06 20:07 | 41.68154 | -5.52010 | 38931 ft | 416 kts | 250° |
| 2026-05-06 20:08 | 41.66268 | -5.59338 | 38932 ft | 416 kts | 250° |
| 2026-05-06 20:08 | 41.64389 | -5.66611 | 38924 ft | 417 kts | 250° |
| 2026-05-06 20:09 | 41.62493 | -5.73929 | 38916 ft | 416 kts | 250° |
| 2026-05-06 20:09 | 41.60594 | -5.81238 | 38922 ft | 416 kts | 251° |
| 2026-05-06 20:10 | 41.58687 | -5.88550 | 38925 ft | 417 kts | 250° |
| 2026-05-06 20:10 | 41.56774 | -5.95861 | 38919 ft | 417 kts | 250° |
| 2026-05-06 20:11 | 41.54855 | -6.03180 | 38916 ft | 417 kts | 250° |
| 2026-05-06 20:11 | 41.52934 | -6.10484 | 38924 ft | 418 kts | 250° |
| 2026-05-06 20:12 | 41.51005 | -6.17802 | 38915 ft | 418 kts | 250° |
| 2026-05-06 20:12 | 41.49063 | -6.25138 | 38611 ft | 424 kts | 250° |
| 2026-05-06 20:13 | 41.48240 | -6.28908 | 38107 ft | 423 kts | 258° |
| 2026-05-06 20:13 | 41.47849 | -6.32789 | 37596 ft | 420 kts | 263° |
| 2026-05-06 20:13 | 41.47569 | -6.36664 | 37016 ft | 420 kts | 263° |
| 2026-05-06 20:13 | 41.47294 | -6.40534 | 36465 ft | 418 kts | 263° |
| 2026-05-06 20:14 | 41.47014 | -6.44386 | 35899 ft | 417 kts | 263° |
| 2026-05-06 20:14 | 41.46726 | -6.48238 | 35300 ft | 418 kts | 262° |
| 2026-05-06 20:14 | 41.46431 | -6.52096 | 34689 ft | 418 kts | 262° |
| 2026-05-06 20:14 | 41.46130 | -6.55950 | 34076 ft | 419 kts | 262° |
| 2026-05-06 20:15 | 41.45825 | -6.59824 | 33356 ft | 420 kts | 262° |
| 2026-05-06 20:15 | 41.45518 | -6.63701 | 32627 ft | 421 kts | 262° |
| 2026-05-06 20:15 | 41.45209 | -6.67581 | 31943 ft | 421 kts | 262° |
| 2026-05-06 20:15 | 41.44896 | -6.71475 | 31228 ft | 422 kts | 262° |
| 2026-05-06 20:16 | 41.44583 | -6.75359 | 30648 ft | 421 kts | 262° |
| 2026-05-06 20:16 | 41.44270 | -6.79221 | 30139 ft | 417 kts | 262° |
| 2026-05-06 20:16 | 41.43959 | -6.83058 | 29577 ft | 415 kts | 262° |
| 2026-05-06 20:16 | 41.43649 | -6.86858 | 29024 ft | 411 kts | 262° |
| 2026-05-06 20:17 | 41.43342 | -6.90622 | 28510 ft | 406 kts | 262° |
| 2026-05-06 20:17 | 41.43036 | -6.94343 | 27994 ft | 402 kts | 262° |
| 2026-05-06 20:17 | 41.42732 | -6.98037 | 27474 ft | 399 kts | 262° |
| 2026-05-06 20:17 | 41.42427 | -7.01715 | 26982 ft | 401 kts | 262° |
| 2026-05-06 20:18 | 41.42118 | -7.05428 | 26482 ft | 406 kts | 262° |
| 2026-05-06 20:18 | 41.41911 | -7.07911 | 26128 ft | 407 kts | 262° |
| 2026-05-06 20:18 | 41.41599 | -7.11637 | 25608 ft | 404 kts | 262° |
| 2026-05-06 20:18 | 41.41288 | -7.15350 | 25098 ft | 400 kts | 262° |
| 2026-05-06 20:19 | 41.40979 | -7.19017 | 24593 ft | 397 kts | 262° |
| 2026-05-06 20:19 | 41.40671 | -7.22655 | 24104 ft | 394 kts | 262° |
| 2026-05-06 20:19 | 41.40363 | -7.26275 | 23597 ft | 391 kts | 262° |
| 2026-05-06 20:19 | 41.40057 | -7.29857 | 23038 ft | 389 kts | 262° |
| 2026-05-06 20:20 | 41.39756 | -7.33382 | 22492 ft | 385 kts | 262° |
| 2026-05-06 20:20 | 41.39454 | -7.36911 | 21997 ft | 381 kts | 262° |
| 2026-05-06 20:20 | 41.39153 | -7.40402 | 21494 ft | 378 kts | 262° |
| 2026-05-06 20:20 | 41.38832 | -7.43852 | 21004 ft | 374 kts | 258° |
| 2026-05-06 20:21 | 41.38147 | -7.47163 | 20537 ft | 369 kts | 248° |
| 2026-05-06 20:21 | 41.37064 | -7.50218 | 20236 ft | 357 kts | 238° |
| 2026-05-06 20:21 | 41.35769 | -7.52915 | 20125 ft | 336 kts | 236° |
| 2026-05-06 20:21 | 41.34520 | -7.55448 | 19870 ft | 322 kts | 236° |
| 2026-05-06 20:22 | 41.33295 | -7.57925 | 19318 ft | 319 kts | 236° |
| 2026-05-06 20:22 | 41.32075 | -7.60397 | 18710 ft | 320 kts | 236° |
| 2026-05-06 20:22 | 41.30864 | -7.62862 | 18116 ft | 318 kts | 236° |
| 2026-05-06 20:22 | 41.29662 | -7.65316 | 17535 ft | 315 kts | 236° |
| 2026-05-06 20:23 | 41.28472 | -7.67748 | 16968 ft | 312 kts | 236° |
| 2026-05-06 20:23 | 41.27298 | -7.70152 | 16375 ft | 310 kts | 236° |
| 2026-05-06 20:23 | 41.26088 | -7.72529 | 16047 ft | 308 kts | 232° |
| 2026-05-06 20:23 | 41.24746 | -7.74743 | 15704 ft | 306 kts | 230° |
| 2026-05-06 20:24 | 41.23381 | -7.76900 | 15373 ft | 305 kts | 229° |
| 2026-05-06 20:24 | 41.22013 | -7.79040 | 15044 ft | 303 kts | 229° |
| 2026-05-06 20:24 | 41.20667 | -7.81136 | 14733 ft | 301 kts | 229° |
| 2026-05-06 20:24 | 41.19294 | -7.83269 | 14410 ft | 300 kts | 229° |
| 2026-05-06 20:25 | 41.17958 | -7.85341 | 14113 ft | 298 kts | 229° |
| 2026-05-06 20:25 | 41.16612 | -7.87422 | 13856 ft | 295 kts | 229° |
| 2026-05-06 20:25 | 41.15278 | -7.89481 | 13499 ft | 295 kts | 229° |
| 2026-05-06 20:25 | 41.13945 | -7.91539 | 13161 ft | 294 kts | 229° |
| 2026-05-06 20:26 | 41.12620 | -7.93591 | 12838 ft | 292 kts | 229° |
| 2026-05-06 20:26 | 41.11308 | -7.95626 | 12529 ft | 290 kts | 229° |
| 2026-05-06 20:26 | 41.10005 | -7.97652 | 12248 ft | 286 kts | 229° |
| 2026-05-06 20:26 | 41.08722 | -7.99655 | 11965 ft | 283 kts | 229° |
| 2026-05-06 20:27 | 41.07458 | -8.01636 | 11683 ft | 281 kts | 229° |
| 2026-05-06 20:27 | 41.06189 | -8.03631 | 11403 ft | 284 kts | 229° |
| 2026-05-06 20:27 | 41.04914 | -8.05651 | 11133 ft | 288 kts | 229° |
| 2026-05-06 20:27 | 41.03637 | -8.07697 | 10872 ft | 288 kts | 229° |
| 2026-05-06 20:28 | 41.02376 | -8.09732 | 10618 ft | 283 kts | 229° |
| 2026-05-06 20:28 | 41.01149 | -8.11733 | 10381 ft | 278 kts | 229° |
| 2026-05-06 20:28 | 40.99939 | -8.13711 | 10164 ft | 275 kts | 229° |
| 2026-05-06 20:28 | 40.98743 | -8.15664 | 9961 ft | 270 kts | 229° |
| 2026-05-06 20:29 | 40.97573 | -8.17583 | 9785 ft | 265 kts | 229° |
| 2026-05-06 20:29 | 40.96430 | -8.19465 | 9641 ft | 261 kts | 229° |
| 2026-05-06 20:29 | 40.95413 | -8.21473 | 9247 ft | 270 kts | 248° |
| 2026-05-06 20:29 | 40.95222 | -8.23964 | 8521 ft | 281 kts | 275° |
| 2026-05-06 20:30 | 40.95525 | -8.26539 | 7917 ft | 284 kts | 277° |
| 2026-05-06 20:30 | 40.96075 | -8.31693 | 6955 ft | 280 kts | 275° |
| 2026-05-06 20:30 | 40.96271 | -8.34247 | 6601 ft | 279 kts | 274° |
| 2026-05-06 20:31 | 40.96465 | -8.36811 | 6284 ft | 280 kts | 275° |
| 2026-05-06 20:31 | 40.96661 | -8.39340 | 5956 ft | 280 kts | 275° |
| 2026-05-06 20:31 | 40.96865 | -8.41924 | 5634 ft | 278 kts | 276° |
| 2026-05-06 20:31 | 40.97066 | -8.44445 | 5439 ft | 272 kts | 276° |
| 2026-05-06 20:32 | 40.97263 | -8.46902 | 5331 ft | 267 kts | 276° |
| 2026-05-06 20:32 | 40.97458 | -8.49347 | 5228 ft | 267 kts | 276° |
| 2026-05-06 20:32 | 40.97652 | -8.51761 | 5129 ft | 268 kts | 277° |
| 2026-05-06 20:32 | 40.97851 | -8.54243 | 5021 ft | 269 kts | 277° |
| 2026-05-06 20:33 | 40.98048 | -8.56702 | 4911 ft | 270 kts | 277° |
| 2026-05-06 20:33 | 40.98402 | -8.59066 | 4750 ft | 262 kts | 295° |
| 2026-05-06 20:33 | 40.99514 | -8.60901 | 4557 ft | 252 kts | 324° |
| 2026-05-06 20:33 | 41.01040 | -8.61918 | 4298 ft | 240 kts | 344° |
| 2026-05-06 20:34 | 41.02624 | -8.62400 | 4057 ft | 228 kts | 349° |
| 2026-05-06 20:34 | 41.04141 | -8.62781 | 3814 ft | 217 kts | 349° |
| 2026-05-06 20:34 | 41.05587 | -8.63147 | 3578 ft | 206 kts | 350° |
| 2026-05-06 20:34 | 41.06951 | -8.63486 | 3352 ft | 194 kts | 349° |
| 2026-05-06 20:35 | 41.08242 | -8.63814 | 3141 ft | 184 kts | 349° |
| 2026-05-06 20:35 | 41.09468 | -8.64129 | 2930 ft | 176 kts | 350° |
| 2026-05-06 20:35 | 41.10654 | -8.64432 | 2705 ft | 170 kts | 349° |
| 2026-05-06 20:35 | 41.11792 | -8.64726 | 2494 ft | 164 kts | 350° |
| 2026-05-06 20:36 | 41.12894 | -8.65012 | 2282 ft | 159 kts | 350° |
| 2026-05-06 20:36 | 41.13968 | -8.65291 | 2080 ft | 156 kts | 349° |
| 2026-05-06 20:36 | 41.15033 | -8.65568 | 1880 ft | 156 kts | 349° |
| 2026-05-06 20:36 | 41.16096 | -8.65845 | 1699 ft | 156 kts | 349° |
| 2026-05-06 20:37 | 41.17158 | -8.66122 | 1480 ft | 155 kts | 349° |
| 2026-05-06 20:37 | 41.18189 | -8.66392 | 1272 ft | 146 kts | 348° |
| 2026-05-06 20:37 | 41.19152 | -8.66643 | 1125 ft | 136 kts | 348° |
| 2026-05-06 20:37 | 41.20083 | -8.66885 | 926 ft | 136 kts | 349° |
| 2026-05-06 20:38 | 41.21001 | -8.67108 | 723 ft | 135 kts | 348° |
| 2026-05-06 20:38 | 41.21921 | -8.67375 | 567 ft | 137 kts | 347° |
| 2026-05-06 20:38 | 41.22860 | -8.67628 | 391 ft | 137 kts | 349° |
| 2026-05-06 20:38 | 41.23778 | -8.67855 | 225 ft | 123 kts | 349° |
| 2026-05-06 20:39 | 41.24419 | -8.68023 | 213 ft | 67 kts | 348° |
| 2026-05-06 20:39 | 41.24807 | -8.68126 | 200 ft | 51 kts | 349° |
| 2026-05-06 20:39 | 41.25112 | -8.68166 | 191 ft | 34 kts | 10° |
| 2026-05-06 20:39 | 41.25265 | -8.68108 | 178 ft | 8 kts | 20° |
| 2026-05-06 20:40 | 41.25292 | -8.68051 | 179 ft | 8 kts | 95° |
| 2026-05-06 20:40 | 41.25252 | -8.68012 | 182 ft | 8 kts | 168° |
| 2026-05-06 20:40 | 41.25190 | -8.67995 | 190 ft | 13 kts | 169° |
| 2026-05-06 20:40 | 41.25072 | -8.67964 | 190 ft | 22 kts | 169° |
| 2026-05-06 20:41 | 41.24917 | -8.67924 | 201 ft | 22 kts | 167° |
| 2026-05-06 20:41 | 41.24780 | -8.67839 | 211 ft | 22 kts | 157° |
| 2026-05-06 20:41 | 41.24637 | -8.67796 | 211 ft | 21 kts | 169° |
| 2026-05-06 20:41 | 41.24495 | -8.67758 | 219 ft | 20 kts | 168° |
| 2026-05-06 20:42 | 41.24359 | -8.67723 | 227 ft | 20 kts | 169° |
| 2026-05-06 20:42 | 41.24271 | -8.67650 | 233 ft | 14 kts | 127° |
| 2026-05-06 20:42 | 41.24199 | -8.67575 | 237 ft | 13 kts | 163° |
| 2026-05-06 20:42 | 41.24111 | -8.67551 | 237 ft | 13 kts | 169° |
| 2026-05-06 20:43 | 41.24024 | -8.67528 | 237 ft | 13 kts | 169° |
| 2026-05-06 20:43 | 41.23947 | -8.67506 | 237 ft | 7 kts | 158° |
| 2026-05-06 20:43 | 41.23900 | -8.67496 | 237 ft | 7 kts | 170° |
| 2026-05-06 20:43 | 41.23863 | -8.67477 | 238 ft | 5 kts | 127° |
| 2026-05-06 20:44 | 41.23863 | -8.67436 | 241 ft | 4 kts | 81° |
| 2026-05-06 20:44 | 41.23867 | -8.67409 | 242 ft | 3 kts | 78° |
| 2026-05-06 20:44 | 41.23869 | -8.67392 | 243 ft | 1 kts | 79° |
| 2026-05-06 20:44 | 41.23870 | -8.67390 | 243 ft | 0 kts | 79° |